Calipatria, California
Current Conditions -  °F | °C
As of 9:53 AM on Thursday 30 Oct 2014 (Local Time) from KIPL Reporting Station
Clear Clear  
Wind Chill: 76°   Ceiling: Unl
Heat Index: 76°   Visibility: 10mi
Dew Point: 39°   Wind: 5mph
Humidity: 26%   Direction: 260°W
Pressure: 29.97"   Gusts: NA
Location:  33.13°N, 115.51°W
Report Text: KIPL 301653Z AUTO 26004KT 10SM CLR 24/04 A2997 RMK AO2 SLP147 T02440039
Loading
Personal Weather Stations






























Interactive Weather Map
Tropical Storm Tracking
New forecast layout! Learn more

10-Day Weather Forecast

Advertisements
Track Severe Weather on mobile